Latest Weather Observations for Warburton

IDW60801

Issued at 6:02 pm WST Wednesday 2 September 2015 (issued every 30 minutes, with the page automatically refreshed every 10 minutes)

About weather observations | Map of weather stations | Latest weather observations for WA | Other Formats
Station Details ID: 013011 Name: WARBURTON AIRFIELD Lat: -26.13 Lon: 126.58 Height: 459.0 m
Data from the previous 72 hours. | See also: Recent months at Warburton
Date/Time
WST
Temp
°C
App
Temp
°C
Dew
Point
Rel
Hum
%
Delta-T
°C
Wind Press
QNH
hPa
Press
MSL
hPa
Rain
since 9 am
mm
Dir
 
Spd
km/h
Gust
km/h
Spd
kts
Gust
kts
02/06:00pm 17.1 13.1 0.7 33 7.3 ESE 11 13 6 7 1021.9 1020.3 0.0
02/05:30pm 17.7 12.9 0.4 31 7.7 ESE 15 20 8 11 1021.6 - 0.0
02/05:00pm 18.4 13.3 0.5 30 8.1 ESE 17 22 9 12 1021.3 - 0.0
02/04:30pm 18.9 14.1 0.5 29 8.3 ESE 15 26 8 14 1021.2 - 0.0
02/04:00pm 19.1 14.4 0.7 29 8.4 ESE 15 26 8 14 1021.3 - 0.0
02/03:30pm 19.4 14.7 0.9 29 8.5 SSE 15 26 8 14 1021.1 - 0.0
02/03:00pm 19.3 13.6 0.4 28 8.5 SSE 20 30 11 16 1021.1 1019.6 0.0
02/02:30pm 19.9 15.2 0.9 28 8.8 ESE 15 30 8 16 1021.2 - 0.0
02/02:00pm 19.3 14.1 0.4 28 8.6 ESE 17 28 9 15 1021.1 - 0.0
02/01:30pm 19.1 14.4 0.7 29 8.4 ESE 15 28 8 15 1021.2 - 0.0
02/01:00pm 19.3 14.6 0.8 29 8.5 SSE 15 26 8 14 1021.5 - 0.0
02/12:30pm 18.2 12.7 0.8 31 7.9 SE 19 30 10 16 1021.9 - 0.0
02/12:00pm 17.0 12.7 1.0 34 7.2 SSE 13 30 7 16 1022.3 1020.7 0.0
02/11:30am 16.4 10.9 0.5 34 7.1 SE 19 30 10 16 1022.8 - 0.0
02/11:00am 16.3 10.8 0.4 34 7.0 S 19 30 10 16 1023.3 - 0.0
02/10:30am 14.9 9.1 -0.4 35 6.6 SE 20 32 11 17 1023.6 - 0.0
02/10:00am 13.7 7.7 -1.9 34 6.4 SSE 20 32 11 17 1024.1 - 0.0
02/09:30am 13.5 8.1 -1.6 35 6.2 SSE 17 26 9 14 1024.2 - 0.0
02/09:00am 12.2 6.4 -1.3 39 5.5 SSE 19 28 10 15 1024.2 1022.6 0.0
02/08:30am 11.5 4.4 -1.6 40 5.3 SSE 26 33 14 18 1024.3 - 0.0
02/08:00am 10.7 5.4 -0.4 46 4.6 SSE 17 26 9 14 1024.0 - 0.0
02/07:30am 9.8 4.2 0.2 51 4.0 SSE 19 24 10 13 1023.5 - 0.0
02/07:00am 8.6 3.4 -0.2 54 3.6 S 17 24 9 13 1023.0 - 0.0
02/06:30am 7.4 2.1 -0.8 56 3.2 SSE 17 22 9 12 1022.6 - 0.0
02/06:00am 5.7 1.8 -1.4 60 2.7 S 9 13 5 7 1022.2 1020.6 0.0
02/05:30am 5.3 0.9 -2.5 57 2.9 S 11 15 6 8 1021.9 - 0.0
02/05:00am 5.8 2.1 -2.5 55 3.1 S 7 9 4 5 1021.5 - 0.0
02/04:30am 6.7 2.3 -2.2 53 3.4 S 11 13 6 7 1021.3 - 0.0
02/04:00am 7.4 2.6 -2.3 50 3.7 S 13 17 7 9 1020.9 - 0.0
02/03:30am 7.4 2.6 -2.9 48 3.9 S 13 17 7 9 1020.8 - 0.0
02/03:00am 7.7 3.2 -3.5 45 4.1 S 11 13 6 7 1020.7 1019.2 0.0
02/02:30am 8.4 3.5 -3.4 43 4.4 S 13 17 7 9 1020.7 - 0.0
02/02:00am 8.5 3.5 -4.0 41 4.6 S 13 17 7 9 1020.7 - 0.0
02/01:30am 8.9 3.9 -4.3 39 4.9 S 13 19 7 10 1020.6 - 0.0
02/01:00am 9.4 4.8 -4.5 37 5.1 S 11 15 6 8 1020.4 - 0.0
02/12:30am 10.2 4.8 -4.6 35 5.5 S 15 20 8 11 1020.3 - 0.0
02/12:00am 10.7 4.9 -4.9 33 5.8 S 17 24 9 13 1020.4 1018.8 0.0
 
Date/Time
WST
Temp
°C
App
Temp
°C
Dew
Point
Rel
Hum
%
Delta-T
°C
Wind Press
QNH
hPa
Press
MSL
hPa
Rain
since 9 am
mm
Dir
 
Spd
km/h
Gust
km/h
Spd
kts
Gust
kts
01/11:30pm 11.0 5.5 -5.0 32 6.0 S 15 20 8 11 1020.3 - 0.0
01/11:00pm 11.7 5.5 -5.3 30 6.3 S 19 26 10 14 1020.1 - 0.0
01/10:30pm 12.2 5.8 -5.3 29 6.6 S 20 26 11 14 1019.9 - 0.0
01/10:00pm 12.8 5.9 -5.7 27 6.9 SSW 22 32 12 17 1019.6 - 0.0
01/09:30pm 13.5 6.3 -5.6 26 7.2 SSW 24 35 13 19 1019.3 - 0.0
01/09:00pm 14.1 7.4 -4.6 27 7.3 SSW 22 32 12 17 1018.9 1017.4 0.0
01/08:30pm 14.8 7.7 -4.0 27 7.5 SSW 24 32 13 17 1018.5 - 0.0
01/08:00pm 15.5 7.8 -2.9 28 7.5 SSW 28 39 15 21 1017.9 - 0.0
01/07:30pm 16.3 8.4 -1.3 30 7.5 SSW 30 41 16 22 1017.1 - 0.0
01/07:00pm 17.4 11.1 -1.3 28 8.1 SW 22 30 12 16 1016.0 - 0.0
01/06:30pm 18.1 11.2 -2.8 24 8.8 SW 24 33 13 18 1015.2 - 0.0
01/06:00pm 18.9 11.3 -2.1 24 9.0 SW 28 37 15 20 1014.4 1012.8 0.0
01/05:30pm 19.8 12.4 -0.8 25 9.2 SW 28 39 15 21 1013.8 - 0.0
01/05:00pm 21.2 14.1 -1.3 22 10.0 WSW 26 35 14 19 1013.2 - 0.0
01/04:30pm 21.9 14.0 -1.4 21 10.4 W 30 41 16 22 1012.8 - 0.0
01/04:00pm 22.4 14.7 -0.3 22 10.4 W 30 43 16 23 1012.6 - 0.0
01/03:30pm 22.5 15.5 -0.3 22 10.5 W 26 41 14 22 1012.4 - 0.0
01/03:00pm 22.9 15.2 0.1 22 10.6 W 30 44 16 24 1012.3 1010.6 0.0
01/02:42pm 23.4 15.9 -1.5 19 11.3 WSW 28 46 15 25 1012.3 - 0.0
01/02:30pm 23.5 16.0 -1.4 19 11.3 WSW 28 43 15 23 1012.3 - 0.0
01/02:17pm 22.7 14.8 -1.4 20 10.9 WSW 30 48 16 26 1012.4 - 0.0
01/02:00pm 22.7 15.1 -2.1 19 11.0 W 28 43 15 23 1012.5 - 0.0
01/01:30pm 22.6 15.0 -2.2 19 11.0 W 28 39 15 21 1012.8 - 0.0
01/01:00pm 22.7 14.6 -0.1 22 10.5 W 32 50 17 27 1013.1 - 0.0
01/12:55pm 22.5 14.5 0.4 23 10.3 W 32 50 17 27 1013.1 - 0.0
01/12:30pm 22.7 16.0 1.7 25 10.0 W 26 35 14 19 1013.4 - 0.0
01/12:00pm 22.8 15.9 2.3 26 9.9 WSW 28 41 15 22 1013.8 1012.2 0.0
01/11:30am 21.1 14.6 2.4 29 9.0 WSW 26 35 14 19 1014.3 - 0.0
01/11:00am 21.3 14.8 2.6 29 9.0 WSW 26 33 14 18 1014.8 - 0.0
01/10:30am 20.6 15.3 2.9 31 8.5 SW 20 35 11 19 1015.0 - 0.0
01/10:00am 19.0 12.5 2.4 33 7.8 SW 26 35 14 19 1015.4 - 0.0
01/09:30am 19.4 13.0 3.2 34 7.8 SSW 26 41 14 22 1015.5 - 0.0
01/09:00am 18.2 11.1 3.7 38 7.0 SSW 30 37 16 20 1015.4 1013.8 0.0
01/08:30am 17.3 10.0 4.6 43 6.2 SSW 32 43 17 23 1015.5 - 0.0
01/08:00am 16.9 9.6 4.3 43 6.1 SSW 32 41 17 22 1015.4 - 0.0
01/07:30am 16.1 9.6 4.8 47 5.5 SSW 28 39 15 21 1015.1 - 0.0
01/07:00am 15.2 10.3 4.9 50 5.0 SW 20 30 11 16 1014.6 - 0.0
01/06:30am 14.4 9.7 5.0 53 4.5 SW 19 24 10 13 1014.0 - 0.0
01/06:00am 11.8 9.1 5.4 65 3.0 WSW 9 15 5 8 1013.4 1011.8 0.0
01/05:30am 10.0 7.7 5.6 74 2.1 N 7 9 4 5 1012.8 - 0.0
01/05:00am 10.3 8.2 5.7 73 2.2 N 6 7 3 4 1012.5 - 0.0
01/04:30am 10.7 8.4 5.5 70 2.5 N 7 9 4 5 1012.0 - 0.0
01/04:00am 10.9 8.5 5.2 68 2.7 N 7 9 4 5 1011.9 - 0.0
01/03:30am 11.9 9.3 6.2 68 2.8 WNW 9 11 5 6 1011.9 - 0.0
01/03:00am 12.0 10.3 6.1 67 2.8 WNW 4 7 2 4 1011.8 1010.2 0.0
01/02:30am 12.4 10.2 6.2 66 3.0 NNW 7 7 4 4 1012.0 - 0.0
01/02:00am 12.9 10.5 6.9 67 3.0 N 9 11 5 6 1012.3 - 0.0
01/01:30am 13.1 10.6 6.7 65 3.2 NNE 9 11 5 6 1012.7 - 0.0
01/01:00am 13.1 11.0 6.5 64 3.2 NE 7 9 4 5 1012.9 - 0.0
01/12:30am 14.4 12.4 7.2 62 3.6 W 7 9 4 5 1013.2 - 0.0
01/12:00am 15.0 13.2 7.8 62 3.7 W 7 7 4 4 1013.3 1011.7 0.0
 
Date/Time
WST
Temp
°C
App
Temp
°C
Dew
Point
Rel
Hum
%
Delta-T
°C
Wind Press
QNH
hPa
Press
MSL
hPa
Rain
since 9 am
mm
Dir
 
Spd
km/h
Gust
km/h
Spd
kts
Gust
kts
31/11:30pm 14.6 14.0 7.2 61 3.7 CALM 0 0 0 0 1013.3 - 0.0
31/11:00pm 15.5 14.8 7.0 57 4.3 CALM 0 0 0 0 1013.2 - 0.0
31/10:30pm 16.1 15.7 8.1 59 4.1 CALM 0 0 0 0 1013.3 - 0.0
31/10:00pm 17.2 15.6 8.1 55 4.7 WSW 6 7 3 4 1013.3 - 0.0
31/09:30pm 17.7 16.2 8.3 54 4.9 S 6 6 3 3 1013.3 - 0.0
31/09:00pm 18.2 16.8 8.7 54 5.0 S 6 7 3 4 1013.2 1012.3 0.0
31/08:30pm 19.1 17.5 8.7 51 5.5 S 7 11 4 6 1013.2 - 0.0
31/08:00pm 20.1 17.6 8.4 47 6.2 S 11 17 6 9 1013.1 - 0.0
31/07:30pm 21.2 17.8 7.8 42 7.1 SSW 15 20 8 11 1012.9 - 0.0
31/07:00pm 22.2 17.9 7.2 38 7.9 SSW 19 24 10 13 1012.5 - 0.0
31/06:30pm 22.9 18.9 9.0 41 7.6 WSW 20 28 11 15 1012.4 - 0.0
31/06:00pm 22.7 21.2 9.1 42 7.5 S 7 11 4 6 1011.9 1011.1 0.0
31/05:30pm 24.0 21.6 8.8 38 8.3 S 11 17 6 9 1011.6 - 0.0
31/05:00pm 25.0 22.2 8.5 35 9.1 SSW 13 19 7 10 1011.6 - 0.0
31/04:30pm 26.4 22.9 7.4 30 10.3 WSW 15 20 8 11 1011.4 - 0.0
31/04:00pm 26.9 22.8 7.9 30 10.4 WSW 19 28 10 15 1011.3 - 0.0
31/03:30pm 28.0 24.4 6.7 26 11.5 WSW 15 20 8 11 1011.3 - 0.0
31/03:00pm 27.7 23.7 6.5 26 11.4 SW 17 24 9 13 1011.4 1010.5 0.0
31/02:30pm 26.0 20.7 8.5 33 9.7 WSW 26 50 14 27 1011.6 - 0.0
31/02:00pm 27.0 22.4 6.4 27 11.0 WSW 20 26 11 14 1011.8 - 0.0
31/01:30pm 27.6 23.5 8.0 29 10.8 SW 19 28 10 15 1012.3 - 0.0
31/01:00pm 29.6 24.5 4.3 20 13.3 NNW 20 35 11 19 1012.5 - 0.0
31/12:30pm 27.9 23.8 8.7 30 10.7 NNW 20 30 11 16 1013.2 - 0.0
31/12:00pm 27.6 24.6 10.8 35 9.7 N 17 26 9 14 1013.8 1013.0 0.0
31/11:30am 26.6 24.4 10.7 37 9.1 NNW 13 26 7 14 1014.7 - 0.0
31/11:00am 26.6 25.0 11.5 39 8.8 NW 11 19 6 10 1015.3 - 0.0
31/10:30am 25.9 24.1 12.0 42 8.1 N 13 20 7 11 1015.8 - 0.0
31/10:00am 24.6 24.1 12.5 46 7.1 NNW 7 19 4 10 1016.3 - 0.0
31/09:30am 23.2 22.5 13.1 53 5.9 NNW 9 19 5 10 1016.6 - 0.0
31/09:00am 22.5 22.9 13.6 57 5.3 N 4 11 2 6 1016.9 1016.0 0.0
31/08:30am 20.0 20.8 13.7 67 3.7 SW 2 7 1 4 1017.0 - 0.0
31/08:00am 19.0 19.3 13.4 70 3.3 SSW 4 9 2 5 1017.1 - 0.0
31/07:30am 17.9 17.8 13.2 74 2.7 SSE 6 9 3 5 1017.1 - 0.0
31/07:00am 16.7 17.5 12.5 76 2.4 CALM 0 0 0 0 1016.9 - 0.0
31/06:30am 15.4 16.0 11.8 79 2.0 CALM 0 0 0 0 1016.2 - 0.0
31/06:00am 14.0 13.3 11.5 85 1.4 SSW 6 9 3 5 1015.9 1015.1 0.0
31/05:30am 14.6 14.3 11.4 81 1.8 N 4 7 2 4 1015.7 - 0.0
31/05:00am 13.4 12.0 10.8 84 1.4 NNE 9 11 5 6 1015.4 - 0.0
31/04:30am 13.4 13.5 10.2 81 1.7 CALM 0 0 0 0 1015.4 - 0.0
31/04:00am 13.4 13.0 9.8 79 1.9 N 2 9 1 5 1015.1 - 0.0
31/03:30am 13.8 12.6 10.4 80 1.8 NE 7 9 4 5 1015.0 - 0.0
31/03:00am 14.4 13.0 10.8 79 1.9 NNE 9 11 5 6 1015.3 1014.5 0.0
31/02:30am 15.0 14.6 11.2 78 2.1 NNE 4 6 2 3 1015.6 - 0.0
31/02:00am 16.4 16.6 11.8 74 2.6 NNE 2 7 1 4 1015.8 - 0.0
31/01:30am 16.7 16.1 11.8 73 2.7 W 6 15 3 8 1016.0 - 0.0
31/01:00am 17.0 16.3 11.5 70 3.1 ENE 6 9 3 5 1015.8 - 0.0
31/12:30am 18.0 17.5 12.0 68 3.4 ENE 6 11 3 6 1015.9 - 0.0
31/12:00am 18.4 17.2 11.7 65 3.8 E 9 11 5 6 1016.0 1015.2 0.0
 
Date/Time
WST
Temp
°C
App
Temp
°C
Dew
Point
Rel
Hum
%
Delta-T
°C
Wind Press
QNH
hPa
Press
MSL
hPa
Rain
since 9 am
mm
Dir
 
Spd
km/h
Gust
km/h
Spd
kts
Gust
kts
30/11:30pm 19.2 17.6 11.7 62 4.2 SE 11 15 6 8 1016.1 - 0.0
30/11:00pm 19.9 18.3 11.7 59 4.6 SSE 11 17 6 9 1016.3 - 0.0
30/10:30pm 20.6 18.5 11.2 55 5.3 ESE 13 17 7 9 1016.4 - 0.0
30/10:00pm 21.2 17.8 11.2 53 5.6 ESE 20 28 11 15 1016.4 - 0.0
30/09:30pm 21.7 18.3 10.5 49 6.3 SE 19 26 10 14 1016.3 - 0.0
30/09:00pm 22.5 18.8 10.3 46 6.8 SE 20 28 11 15 1016.5 1015.7 0.0
30/08:30pm 23.5 19.4 8.8 39 8.0 SE 20 28 11 15 1016.1 - 0.0
30/08:00pm 24.1 20.2 8.5 37 8.5 S 19 26 10 14 1016.3 - 0.0
30/07:30pm 25.5 20.4 6.2 29 10.2 SSE 22 32 12 17 1016.1 - 0.0
30/07:00pm 26.6 23.1 5.5 26 11.1 SW 13 20 7 11 1016.0 - 0.0
30/06:30pm 26.8 23.0 5.7 26 11.1 WNW 15 20 8 11 1015.6 - 0.0

Other Formats:

Comma delimited format used in spreadsheet applications
http://www.bom.gov.au/fwo/IDW60801/IDW60801.94457.axf

JavaScript Object Notation format (JSON) in row-major order
http://www.bom.gov.au/fwo/IDW60801/IDW60801.94457.json